KCNW/CNW METAR and TAF weather

Enter ICAO airport designator
Station Type Date Time Source
KCNW METAR 2022/11/30 16:55 UTC NOAA

KCNW 301655Z 02010G21KT 10SM SKC 08/M05 A3044


Station Type Date Time Source
KCNW Decoded METAR 2022/11/30 16:55 UTC NOAA

Station name not available
Nov 30, 2022 - 11:55 AM EST / 2022.11.30 1655 UTC
Wind: from the NNE (020 degrees) at 12 MPH (10 KT) gusting to 24 MPH (21 KT):0
Visibility: 10 mile(s):0
Sky conditions: clear
Temperature: 46 F (8 C)
Dew Point: 23 F (-5 C)
Relative Humidity: 39%
Pressure (altimeter): 30.44 in. Hg (1030 hPa)
ob: KCNW 301655Z 02010G21KT 10SM SKC 08/M05 A3044
cycle: 17

Station Type Date Time Source
KCNW TAF UTC NOAA

Error!

Example: see airport list